Relevés horaires Interlaken (Suisse)


Relevés horaires à Interlaken - Mardi 17 Juill. 2018
Heure UTC1 Température [°C] Vent [km/h] Hum. [%] Pres.4 [hPa] Visi. [Km] Nébu. [octa] Préc.5 [mm] Cond.
2m. Res. Ros. Dir.2 Vit. Moy. Raf.3
23:00 16.8 16.8 14.4 SE 3.7 -- -- 86 1019.2 -- -- -- --
22:00 16.9 16.9 14.5 SSE 3.7 -- -- 86 1019.1 -- -- -- --
21:00 16.7 16.7 14.3 SSE 0.0 -- 16.7 86 1019(0.7/3h) -- -- -- --
20:00 16.5 16.5 14.5 ENE 3.7 -- -- 88 1018.9 -- -- -- --
19:00 17.5 17.5 14.5 S 5.6 -- -- 83 1018.3 -- -- -- --
18:00 18.6 18.6 14.7 NE 7.4 -- 50.0 78 1017.8(1.6/3h) -- -- 0.2/12h
--
17:00 19.8 19.8 14.8 NNE 5.6 -- -- 73 1017.4 -- -- -- --
16:00 19.8 19.7 14.1 ENE 20.4 -- -- 70 1016.7 -- -- -- --
15:00 21.8 21.8 12.2 ENE 35.2 -- 50.0 54 1015.3(-0.1/3h) -- -- -- --
14:00 24.5 24.5 14.0 E 7.4 -- -- 52 1014.4 -- -- -- --
13:00 23.7 23.7 15.8 NE 5.6 -- -- 61 1015 -- -- -- --
12:00 23.2 23.2 15.1 ENE 16.7 -- 22.2 60 1015.1(-0.4/3h) -- -- 0/6h
--
11:00 23.5 23.5 12.9 ONO 9.3 -- -- 51 1015.4 -- -- -- --
10:00 21.3 21.3 13.5 NE 5.6 -- -- 61 1016.1 -- -- -- --
09:00 20.8 20.8 13.9 NE 9.3 -- 14.8 65 1016.1(0.3/3h) -- -- -- --
08:00 19.7 19.7 14.1 NE 5.6 -- -- 70 1016.3 -- -- -- --
07:00 17.4 17.4 13.9 E 1.9 -- -- 80 1016.7 -- -- -- --
06:00 16.3 16.3 13.6 SSO 3.7 -- 24.1 84 1016.9(1.3/3h) -- -- 0.1/12h
0.1/24h
--
05:00 15.6 15.6 12.8 SSO 3.7 -- -- 83 1016.5 -- -- -- --
04:00 15.2 15.2 12.7 OSO 1.9 -- -- 85 1016.2 -- -- -- --
03:00 15.1 15.1 12.8 SSO 3.7 -- 24.1 86 1015.8(0.5/3h) -- -- -- --
02:00 15.6 15.6 13.2 SO 5.6 -- -- 86 1015.4 -- -- -- --
01:00 16.2 16.2 13.5 ESE 3.7 -- -- 84 1015 -- -- -- --
00:00 16.3 15.7 13.8 SO 14.8 -- 22.2 85 1015(1.8/3h) -- -- 0.1/6h
--

1 Coordinated Universal Time. Actuellement il est 07:00 locale et 06:00 UTC.

2 Le vent souffle depuis la direction indiquée vers la direction oposée.

3 Les rafales max. sont disponible 40 min après l'heure du relevé.

4 Pour les stations d'altitude (plus de 600m) le géopotentiel du niveau le plus proche de la pression obligatoire est indiqué.

5 Les stations disposant d'un diffuseur peuvent indiquer "trace". Cela signifie que des précipitations ont touchés le sol mais que la quantité est inférieure à 0.1 mm.

Récapitulatif de la journée
Température [°C] Vent [km/h] Ensoleillement4 [h] Precipitations totale5 [mm] Pression [Hpa]
Min1 Max.2 Moy.3 Max. Min Max.
14.7 26.5 0 50.0 6 h 48 min 0.2 1014.4 1019.2

1 Température minimale relevée entre 18:00 UTC la veille et 18:00 UTC le jour donné.

2 Température maximale relevée entre 06:00 UTC le jour donné et 06:00 UTC le lendemain.

3 Vent moyen de la journée basé sur les relevés horaires.

4 Ensoleillement en heures relevé entre 06:00 UTC la veille et 06:00 UTC le jour donné.

5 Précipitations totales tombées entre 06:00 UTC la jour donné et 06:00 UTC le lendemain.

Graphiques horaires